Observations for Trim Market St
| Time | AQI | Temp °C | Hum % | Pres Pa | CO μg/m³ | H₂S μg/m³ | NO μg/m³ | NO₂ μg/m³ | O₃ μg/m³ | SO₂ μg/m³ | PM1 μg/m³ | PM2.5 μg/m³ | PM10 μg/m³ |
|---|---|---|---|---|---|---|---|---|---|---|---|---|---|
| Sunday 12 July 2026 | |||||||||||||
| 00:51 | 1 | 19.7 | 74 | 40,606 | 0 | 0 | 0 | 6.82 | 17.43 | 0 | 4.99 | 6.7 | 9.94 |
| 00:49 | 1 | 19.7 | 74 | 40,806 | 0 | 0 | 0 | 1.82 | 9 | 0 | 4.99 | 6.22 | 9.34 |
| 00:48 | 1 | 19.7 | 74 | 40,830 | 0.01 | 0 | 0 | 6.13 | 15.27 | 0 | 4.99 | 7.19 | 10.55 |
| 00:47 | 1 | 19.7 | 74 | 41,014 | 0.15 | 0 | 5.05 | 8.83 | 1.28 | 0 | 7.13 | 8.63 | 12.35 |
| 00:46 | 1 | 19.7 | 74 | 41,156 | 0 | 0 | 0 | 2.13 | 8.18 | 0 | 4.28 | 5.27 | 8.13 |
| 00:42 | 1 | 19.8 | 74 | 41,928 | 0.04 | 0 | 0 | 6.23 | 13.48 | 0 | 5.7 | 7.2 | 10.55 |
| 00:41 | 1 | 19.8 | 74 | 42,115 | 0.07 | 0 | 0 | 2.22 | 4.56 | 0 | 4.99 | 6.71 | 11.15 |
| 00:36 | 1 | 19.9 | 74 | 42,510 | 0 | 0 | 0 | 5.02 | 9.44 | 0 | 4.28 | 7.21 | 10.55 |
| 00:32 | 1 | 19.9 | 74 | 43,097 | 0 | 0 | 0 | 4.73 | 12.86 | 0 | 6.41 | 8.17 | 12.37 |
| 00:29 | 1 | 20 | 74 | 43,606 | 0.22 | 0 | 0 | 1.6 | 0 | 0 | 4.99 | 7.21 | 11.77 |
| 00:25 | 1 | 20.1 | 74 | 44,018 | 0 | 0 | 0 | 3.08 | 13.99 | 0 | 4.99 | 6.74 | 11.17 |
| 00:22 | 1 | 20.1 | 73 | 44,005 | 0 | 0 | 0 | 5.8 | 11.58 | 0 | 4.99 | 6.74 | 10.56 |
| 00:21 | 1 | 20.1 | 73 | 44,185 | 0 | 0 | 0 | 8.1 | 11.73 | 0 | 6.41 | 8.19 | 11.78 |
| 00:20 | 1 | 20.1 | 73 | 44,344 | 0 | 0 | 0 | 11.11 | 28.19 | 0 | 7.13 | 8.67 | 13 |
| 00:19 | 1 | 20.1 | 73 | 44,483 | 0 | 0 | 0 | 5.51 | 11.57 | 0 | 5.7 | 6.27 | 9.35 |
| 00:18 | 1 | 20.1 | 73 | 44,521 | 0 | 0 | 0 | 3.61 | 9.71 | 0 | 6.41 | 7.23 | 11.78 |
| 00:17 | 1 | 20.2 | 73 | 44,662 | 0 | 0 | 0.08 | 3.88 | 4.52 | 0 | 5.7 | 8.19 | 13 |
| 00:16 | 1 | 20.2 | 73 | 44,888 | 0 | 0 | 0 | 4.09 | 10.15 | 0 | 4.28 | 6.76 | 10.57 |
| 00:15 | 1 | 20.2 | 73 | 45,107 | 0 | 0 | 0 | 10.89 | 30.32 | 0 | 6.41 | 7.72 | 11.18 |
| 00:14 | 1 | 20.2 | 73 | 45,257 | 0.04 | 0 | 0 | 7.9 | 12.92 | 0 | 4.99 | 6.76 | 11.79 |